createdAt,value
2023-04-13T00:01:13.816Z,57.44
2023-04-13T00:03:40.887Z,57.20
2023-04-13T00:06:11.316Z,57.36
2023-04-13T00:08:38.908Z,57.80
2023-04-13T00:11:07.899Z,57.85
2023-04-13T00:13:41.389Z,58.58
2023-04-13T00:16:10.039Z,57.75
2023-04-13T00:18:37.001Z,57.36
2023-04-13T00:21:04.220Z,58.07
2023-04-13T00:23:32.204Z,58.40
2023-04-13T00:26:01.705Z,58.55
2023-04-13T00:28:30.236Z,58.58
2023-04-13T00:30:59.402Z,57.99
2023-04-13T00:33:26.840Z,57.73
2023-04-13T00:35:53.962Z,59.25
2023-04-13T00:38:20.924Z,58.09
2023-04-13T00:40:47.875Z,58.34
2023-04-13T00:43:15.091Z,58.07
2023-04-13T00:45:43.791Z,57.17
2023-04-13T00:48:13.761Z,57.24
2023-04-13T00:50:42.508Z,57.06
2023-04-13T00:53:13.845Z,58.06
2023-04-13T00:55:43.018Z,58.48
2023-04-13T00:58:10.293Z,58.37
2023-04-13T01:00:43.243Z,58.71
2023-04-13T01:03:10.709Z,58.01
2023-04-13T01:05:50.649Z,59.90
2023-04-13T01:08:26.539Z,58.87
2023-04-13T01:11:14.611Z,58.25
2023-04-13T01:13:56.116Z,58.14
2023-04-13T01:16:57.191Z,58.20
2023-04-13T01:19:48.745Z,58.03
2023-04-13T01:22:16.723Z,58.91
2023-04-13T01:25:14.960Z,58.28
2023-04-13T01:28:02.522Z,59.17
2023-04-13T01:30:32.489Z,59.01
2023-04-13T01:33:02.391Z,59.12
2023-04-13T01:35:31.343Z,59.50
2023-04-13T01:37:59.178Z,59.13
2023-04-13T01:40:29.246Z,59.47
2023-04-13T01:42:58.172Z,59.43
2023-04-13T01:45:37.078Z,59.66
2023-04-13T01:48:24.288Z,58.32
2023-04-13T01:51:31.586Z,59.17
2023-04-13T01:54:13.789Z,58.93
2023-04-13T01:56:45.090Z,58.70
2023-04-13T01:59:12.549Z,58.93
2023-04-13T02:01:43.323Z,58.58
2023-04-13T02:04:10.421Z,59.09
2023-04-13T02:06:41.223Z,59.62
2023-04-13T02:09:10.089Z,59.33
2023-04-13T02:11:38.211Z,59.18
2023-04-13T02:14:06.687Z,60.10
2023-04-13T02:16:34.670Z,59.79
2023-04-13T02:19:01.866Z,59.96
2023-04-13T02:21:28.924Z,59.81
2023-04-13T02:23:56.118Z,59.45
2023-04-13T02:26:23.731Z,59.04
2023-04-13T02:28:51.602Z,59.66
2023-04-13T02:31:20.642Z,59.33
2023-04-13T02:33:48.030Z,59.95
2023-04-13T02:36:17.620Z,60.11
2023-04-13T02:38:58.296Z,59.91
2023-04-13T02:41:29.887Z,59.64
2023-04-13T02:43:57.923Z,59.81
2023-04-13T02:46:28.459Z,59.29
2023-04-13T02:49:12.076Z,59.24
2023-04-13T02:51:48.889Z,59.43
2023-04-13T02:54:17.164Z,59.37
2023-04-13T02:56:47.324Z,59.01
2023-04-13T02:59:16.713Z,59.39
2023-04-13T03:01:46.012Z,59.22
2023-04-13T03:04:15.143Z,58.68
2023-04-13T03:06:44.444Z,59.33
2023-04-13T03:09:12.177Z,60.16
2023-04-13T03:11:45.353Z,59.98
2023-04-13T03:14:22.975Z,59.84
2023-04-13T03:16:57.876Z,59.65
2023-04-13T03:19:33.564Z,59.99
2023-04-13T03:22:00.548Z,60.21
2023-04-13T03:24:29.075Z,60.03
2023-04-13T03:26:59.718Z,60.10
2023-04-13T03:29:33.774Z,60.33
2023-04-13T03:32:01.086Z,59.54
2023-04-13T03:34:31.913Z,58.39
2023-04-13T03:37:02.327Z,58.71
2023-04-13T03:39:30.333Z,58.51
2023-04-13T03:41:58.238Z,58.47
2023-04-13T03:44:26.384Z,58.40
2023-04-13T03:46:53.886Z,57.89
2023-04-13T03:49:28.615Z,58.13
2023-04-13T03:51:55.815Z,59.04
2023-04-13T03:54:23.486Z,58.70
2023-04-13T03:56:52.000Z,58.52
2023-04-13T03:59:19.127Z,57.82
2023-04-13T04:01:47.983Z,58.64
2023-04-13T04:04:15.346Z,58.79
2023-04-13T04:06:42.568Z,59.14
2023-04-13T04:09:14.469Z,59.66
2023-04-13T04:11:45.678Z,60.26
2023-04-13T04:14:15.431Z,60.36
2023-04-13T04:16:51.297Z,60.81
2023-04-13T04:19:19.159Z,60.66
2023-04-13T04:21:47.648Z,60.84
2023-04-13T04:24:23.033Z,61.08
2023-04-13T04:26:55.810Z,61.52
2023-04-13T04:29:34.374Z,61.71
2023-04-13T04:32:11.141Z,61.23
2023-04-13T04:34:41.065Z,61.27
2023-04-13T04:37:20.426Z,61.25
2023-04-13T04:40:00.354Z,61.23
2023-04-13T04:42:27.906Z,62.04
2023-04-13T04:44:57.334Z,60.19
2023-04-13T04:47:30.339Z,62.48
2023-04-13T04:50:11.029Z,62.44
2023-04-13T04:52:40.911Z,64.34
2023-04-13T04:55:09.561Z,64.25
2023-04-13T04:57:39.526Z,64.09
2023-04-13T05:00:15.684Z,65.01
2023-04-13T05:02:51.050Z,62.63
2023-04-13T05:05:18.788Z,62.08
2023-04-13T05:07:46.264Z,63.97
2023-04-13T05:10:14.454Z,59.91
2023-04-13T05:12:47.506Z,61.28
2023-04-13T05:15:14.507Z,63.99
2023-04-13T05:17:42.065Z,64.79
2023-04-13T05:20:09.640Z,63.85
2023-04-13T05:22:45.672Z,60.71
2023-04-13T05:25:13.398Z,59.36
2023-04-13T05:27:41.117Z,59.74
2023-04-13T05:30:09.736Z,54.25
2023-04-13T05:32:39.381Z,60.64
2023-04-13T05:35:08.024Z,61.99
2023-04-13T05:37:35.234Z,65.15
2023-04-13T05:40:03.031Z,65.74
2023-04-13T05:42:33.189Z,64.24
2023-04-13T05:45:01.595Z,59.46
2023-04-13T05:47:29.763Z,57.87
2023-04-13T05:50:03.011Z,58.39
2023-04-13T05:52:31.244Z,57.96
2023-04-13T05:54:58.218Z,58.37
2023-04-13T05:57:26.246Z,56.60
2023-04-13T05:59:55.460Z,57.29
2023-04-13T06:02:26.959Z,54.75
2023-04-13T06:04:55.076Z,55.26
2023-04-13T06:07:26.227Z,56.84
2023-04-13T06:09:53.099Z,54.17
2023-04-13T06:12:21.838Z,55.35
2023-04-13T06:14:48.742Z,52.83
2023-04-13T06:17:15.704Z,51.32
2023-04-13T06:19:42.767Z,52.18
2023-04-13T06:22:09.739Z,53.06
2023-04-13T06:24:39.396Z,51.79
2023-04-13T06:27:08.692Z,50.44
2023-04-13T06:29:36.160Z,53.76
2023-04-13T06:32:08.228Z,53.25
2023-04-13T06:34:36.080Z,52.86
2023-04-13T06:37:05.306Z,52.79
2023-04-13T06:39:41.122Z,51.07
2023-04-13T06:42:08.977Z,51.08
2023-04-13T06:44:54.095Z,51.07
2023-04-13T06:47:22.959Z,49.90
2023-04-13T06:49:50.273Z,51.00
2023-04-13T06:52:17.859Z,50.49
2023-04-13T06:54:44.826Z,49.36
2023-04-13T06:57:24.132Z,48.28
2023-04-13T06:59:51.273Z,49.47
2023-04-13T07:02:18.692Z,45.82
2023-04-13T07:04:46.067Z,48.54
2023-04-13T07:07:13.223Z,49.11
2023-04-13T07:09:40.352Z,49.23
2023-04-13T07:12:08.026Z,48.46
2023-04-13T07:14:36.570Z,50.29
2023-04-13T07:17:04.890Z,48.22
2023-04-13T07:19:34.011Z,48.22
2023-04-13T07:22:02.240Z,48.37
2023-04-13T07:24:31.259Z,48.95
2023-04-13T07:27:01.526Z,49.80
2023-04-13T07:29:28.615Z,40.51
2023-04-13T07:32:02.616Z,47.88
2023-04-13T07:34:32.050Z,46.76
2023-04-13T07:36:59.829Z,45.04
2023-04-13T07:39:27.998Z,45.03
2023-04-13T07:41:57.287Z,41.18
2023-04-13T07:44:35.900Z,45.62
2023-04-13T07:47:03.375Z,43.97
2023-04-13T07:49:32.199Z,46.48
2023-04-13T07:52:00.424Z,46.19
2023-04-13T07:54:31.054Z,44.55
2023-04-13T07:56:58.668Z,42.10
2023-04-13T07:59:29.840Z,41.41
2023-04-13T08:01:58.192Z,46.21
2023-04-13T08:04:26.366Z,44.34
2023-04-13T08:06:54.209Z,46.94
2023-04-13T08:09:21.478Z,47.49
2023-04-13T08:11:49.955Z,47.13
2023-04-13T08:14:17.514Z,45.93
2023-04-13T08:16:47.322Z,45.52
2023-04-13T08:19:14.431Z,46.53
2023-04-13T08:21:47.466Z,47.75
2023-04-13T08:24:14.383Z,45.39
2023-04-13T08:26:41.933Z,45.93
2023-04-13T08:29:11.047Z,46.87
2023-04-13T08:31:38.637Z,46.06
2023-04-13T08:34:07.167Z,44.99
2023-04-13T08:36:34.167Z,39.87
2023-04-13T08:39:10.428Z,43.22
2023-04-13T08:41:44.313Z,42.98
2023-04-13T08:44:13.753Z,45.27
2023-04-13T08:46:47.573Z,46.23
2023-04-13T08:49:18.838Z,44.97
2023-04-13T08:52:16.869Z,45.20
2023-04-13T08:54:47.831Z,45.55
2023-04-13T08:57:26.073Z,41.98
2023-04-13T08:59:53.666Z,45.26
2023-04-13T09:02:26.710Z,45.21
2023-04-13T09:05:01.078Z,46.28
2023-04-13T09:07:32.717Z,46.19
2023-04-13T09:10:09.634Z,43.13
2023-04-13T09:12:36.952Z,43.79
2023-04-13T09:15:07.689Z,41.37
2023-04-13T09:17:44.261Z,41.47
2023-04-13T09:20:20.694Z,43.57
2023-04-13T09:22:48.595Z,42.49
2023-04-13T09:25:27.476Z,42.65
2023-04-13T09:27:55.307Z,42.95
2023-04-13T09:30:24.303Z,43.95
2023-04-13T09:33:10.726Z,42.73
2023-04-13T09:35:38.525Z,37.45
2023-04-13T09:38:06.395Z,40.78
2023-04-13T09:40:33.380Z,38.43
2023-04-13T09:43:02.869Z,41.97
2023-04-13T09:45:37.893Z,40.89
2023-04-13T09:48:07.150Z,39.28
2023-04-13T09:50:36.857Z,39.10
2023-04-13T09:53:10.834Z,33.38
2023-04-13T09:55:39.014Z,38.07
2023-04-13T09:58:25.526Z,40.37
2023-04-13T10:00:53.564Z,36.20
2023-04-13T10:03:22.611Z,38.38
2023-04-13T10:05:59.511Z,41.46
2023-04-13T10:08:37.625Z,41.47
2023-04-13T10:11:11.953Z,38.71
2023-04-13T10:13:52.299Z,36.93
2023-04-13T10:16:46.635Z,37.29
2023-04-13T10:19:17.021Z,40.05
2023-04-13T10:21:47.830Z,40.00
2023-04-13T10:24:15.941Z,39.04
2023-04-13T10:26:45.936Z,34.43
2023-04-13T10:29:14.935Z,34.78
2023-04-13T10:31:47.949Z,34.70
2023-04-13T10:34:25.782Z,37.58
2023-04-13T10:36:58.684Z,38.72
2023-04-13T10:39:27.980Z,37.71
2023-04-13T10:42:06.533Z,37.55
2023-04-13T10:44:47.939Z,37.48
2023-04-13T10:47:16.860Z,35.79
2023-04-13T10:49:46.820Z,35.14
2023-04-13T10:52:22.813Z,33.33
2023-04-13T10:54:50.778Z,31.44
2023-04-13T10:57:17.911Z,35.38
2023-04-13T10:59:58.644Z,35.45
2023-04-13T11:02:34.169Z,33.12
2023-04-13T11:05:02.468Z,34.56
2023-04-13T11:07:30.173Z,33.05
2023-04-13T11:10:03.527Z,35.41
2023-04-13T11:12:31.494Z,34.96
2023-04-13T11:14:59.576Z,36.44
2023-04-13T11:17:26.872Z,32.88
2023-04-13T11:19:55.746Z,33.25
2023-04-13T11:22:25.390Z,33.06
2023-04-13T11:24:52.948Z,33.41
2023-04-13T11:27:24.514Z,33.01
2023-04-13T11:29:58.970Z,34.29
2023-04-13T11:32:26.477Z,34.32
2023-04-13T11:34:53.836Z,33.89
2023-04-13T11:37:21.868Z,34.52
2023-04-13T11:39:50.709Z,33.32
2023-04-13T11:42:17.869Z,35.20
2023-04-13T11:44:46.528Z,35.13
2023-04-13T11:47:17.331Z,34.88
2023-04-13T11:49:52.795Z,34.75
2023-04-13T11:52:19.986Z,34.37
2023-04-13T11:54:49.231Z,35.39
2023-04-13T11:57:18.268Z,34.76
2023-04-13T11:59:47.702Z,34.88
2023-04-13T12:02:21.904Z,34.94
2023-04-13T12:04:50.468Z,33.86
2023-04-13T12:07:18.613Z,33.98
2023-04-13T12:15:10.586Z,34.57
2023-04-13T12:17:49.463Z,35.65
2023-04-13T12:20:17.517Z,35.39
2023-04-13T12:22:55.118Z,36.28
2023-04-13T12:25:35.524Z,35.69
2023-04-13T12:28:04.055Z,34.59
2023-04-13T12:30:32.974Z,34.35
2023-04-13T12:33:00.119Z,36.02
2023-04-13T12:35:27.473Z,33.94
2023-04-13T12:37:54.761Z,35.42
2023-04-13T12:40:21.905Z,36.60
2023-04-13T12:42:49.608Z,34.48
2023-04-13T12:45:17.094Z,33.51
2023-04-13T12:47:44.695Z,34.50
2023-04-13T12:50:12.595Z,34.77
2023-04-13T12:52:42.595Z,34.12
2023-04-13T12:55:10.306Z,32.96
2023-04-13T12:57:37.938Z,36.13
2023-04-13T13:00:10.548Z,36.02
2023-04-13T13:02:38.414Z,33.66
2023-04-13T13:05:06.063Z,34.35
2023-04-13T13:07:33.158Z,33.05
2023-04-13T13:10:02.030Z,33.60
2023-04-13T13:12:30.445Z,36.16
2023-04-13T13:14:58.699Z,34.14
2023-04-13T13:17:25.880Z,34.76
2023-04-13T13:19:53.132Z,36.16
2023-04-13T13:22:20.627Z,36.22
2023-04-13T13:24:47.686Z,36.16
2023-04-13T13:27:48.620Z,33.81
2023-04-13T13:30:04.850Z,35.30
2023-04-13T13:32:32.057Z,33.76
2023-04-13T13:34:59.373Z,34.59
2023-04-13T13:37:26.523Z,34.81
2023-04-13T13:39:54.161Z,35.75
2023-04-13T13:42:21.716Z,35.45
2023-04-13T13:44:48.987Z,34.00
2023-04-13T13:47:16.202Z,33.96
2023-04-13T13:49:51.832Z,33.59
2023-04-13T13:52:33.782Z,33.77
2023-04-13T13:55:03.621Z,34.26
2023-04-13T13:57:31.156Z,37.04
2023-04-13T13:59:58.307Z,36.00
2023-04-13T14:02:25.482Z,33.80
2023-04-13T14:04:52.673Z,34.30
2023-04-13T14:07:19.780Z,34.00
2023-04-13T14:09:47.272Z,35.46
2023-04-13T14:12:14.395Z,34.57
2023-04-13T14:14:41.494Z,34.49
2023-04-13T14:17:08.722Z,34.16
2023-04-13T14:19:35.872Z,33.84
2023-04-13T14:22:03.108Z,34.60
2023-04-13T14:24:30.173Z,35.21
2023-04-13T14:26:57.243Z,34.97
2023-04-13T14:29:24.431Z,34.87
2023-04-13T14:31:52.708Z,35.66
2023-04-13T14:36:49.128Z,36.15
2023-04-13T14:39:17.733Z,36.50
2023-04-13T14:41:45.791Z,37.38
2023-04-13T14:44:12.917Z,35.80
2023-04-13T14:46:40.050Z,37.45
2023-04-13T14:49:07.174Z,36.30
2023-04-13T14:51:34.650Z,38.13
2023-04-13T14:54:01.723Z,38.07
2023-04-13T14:56:28.898Z,36.39
2023-04-13T14:58:56.177Z,36.89
2023-04-13T15:01:25.046Z,37.38
2023-04-13T15:03:55.278Z,37.77
2023-04-13T15:06:22.738Z,38.45
2023-04-13T15:08:49.724Z,37.21
2023-04-13T15:11:16.881Z,37.60
2023-04-13T15:13:43.954Z,39.01
2023-04-13T15:16:11.841Z,38.47
2023-04-13T15:18:39.182Z,38.84
2023-04-13T15:21:06.469Z,39.27
2023-04-13T15:23:33.670Z,40.12
2023-04-13T15:26:03.679Z,39.64
2023-04-13T15:28:30.937Z,40.42
2023-04-13T15:30:57.955Z,40.46
2023-04-13T15:33:25.107Z,40.63
2023-04-13T15:35:52.759Z,41.17
2023-04-13T15:38:20.111Z,41.11
2023-04-13T15:40:47.371Z,41.17
2023-04-13T15:43:14.787Z,41.65
2023-04-13T15:45:42.142Z,41.58
2023-04-13T15:48:11.333Z,42.00
2023-04-13T15:50:38.581Z,41.69
2023-04-13T15:53:06.013Z,42.24
2023-04-13T15:55:33.529Z,42.46
2023-04-13T15:58:00.710Z,42.98
2023-04-13T16:00:28.266Z,43.48
2023-04-13T16:02:56.455Z,43.71
2023-04-13T16:05:23.628Z,43.36
2023-04-13T16:07:50.934Z,42.65
2023-04-13T16:10:18.843Z,44.04
2023-04-13T16:12:46.113Z,43.92
2023-04-13T16:15:13.394Z,43.90
2023-04-13T16:17:44.169Z,44.61
2023-04-13T16:20:14.517Z,44.76
2023-04-13T16:22:43.552Z,44.51
2023-04-13T16:25:11.629Z,44.62
2023-04-13T16:27:38.822Z,44.51
2023-04-13T16:30:30.563Z,45.55
2023-04-13T16:32:57.609Z,43.97
2023-04-13T16:35:25.198Z,43.63
2023-04-13T16:37:52.171Z,44.57
2023-04-13T16:40:19.271Z,44.91
2023-04-13T16:42:46.416Z,45.47
2023-04-13T16:45:15.071Z,44.37
2023-04-13T16:47:42.674Z,45.24
2023-04-13T16:50:11.313Z,45.30
2023-04-13T16:52:40.093Z,45.65
2023-04-13T16:55:08.027Z,46.03
2023-04-13T16:57:35.077Z,46.33
2023-04-13T17:00:07.248Z,46.68
2023-04-13T17:02:34.509Z,46.66
2023-04-13T17:05:01.624Z,46.26
2023-04-13T17:07:28.636Z,46.52
2023-04-13T17:09:55.983Z,46.75
2023-04-13T17:12:23.182Z,46.89
2023-04-13T17:14:50.320Z,47.52
2023-04-13T17:17:17.289Z,47.75
2023-04-13T17:19:44.433Z,47.60
2023-04-13T17:22:11.780Z,47.56
2023-04-13T17:24:38.956Z,47.57
2023-04-13T17:27:06.755Z,47.91
2023-04-13T17:29:36.421Z,47.44
2023-04-13T17:32:04.264Z,47.56
2023-04-13T17:34:31.646Z,47.91
2023-04-13T17:37:02.240Z,48.28
2023-04-13T17:39:29.479Z,47.93
2023-04-13T17:41:56.799Z,48.67
2023-04-13T17:44:23.927Z,48.85
2023-04-13T17:46:52.868Z,49.51
2023-04-13T17:49:21.110Z,48.51
2023-04-13T17:51:49.188Z,49.21
2023-04-13T17:54:16.187Z,49.54
2023-04-13T17:56:43.282Z,49.76
2023-04-13T17:59:16.488Z,50.53
2023-04-13T18:01:43.819Z,50.21
2023-04-13T18:04:12.137Z,49.84
2023-04-13T18:06:39.713Z,50.65
2023-04-13T18:09:07.312Z,50.08
2023-04-13T18:11:34.586Z,50.91
2023-04-13T18:14:04.974Z,49.15
2023-04-13T18:16:32.014Z,50.97
2023-04-13T18:18:59.245Z,50.64
2023-04-13T18:21:26.560Z,50.71
2023-04-13T18:23:54.113Z,50.14
2023-04-13T18:26:22.697Z,50.02
2023-04-13T18:28:49.628Z,49.64
2023-04-13T18:31:16.726Z,50.00
2023-04-13T18:33:44.705Z,50.49
2023-04-13T18:36:18.668Z,50.33
2023-04-13T18:38:46.238Z,49.41
2023-04-13T18:41:13.634Z,49.64
2023-04-13T18:43:40.982Z,49.67
2023-04-13T18:46:08.437Z,50.39
2023-04-13T18:48:36.170Z,50.15
2023-04-13T18:51:03.849Z,50.40
2023-04-13T18:53:31.347Z,49.90
2023-04-13T18:55:58.840Z,50.32
2023-04-13T18:58:26.573Z,50.39
2023-04-13T19:00:53.675Z,49.37
2023-04-13T19:03:20.911Z,49.85
2023-04-13T19:05:48.053Z,50.21
2023-04-13T19:08:15.532Z,50.31
2023-04-13T19:10:42.959Z,50.26
2023-04-13T19:13:10.271Z,49.81
2023-04-13T19:15:37.323Z,50.13
2023-04-13T19:18:04.570Z,49.97
2023-04-13T19:20:31.749Z,49.63
2023-04-13T19:22:58.753Z,49.33
2023-04-13T19:25:25.910Z,49.94
2023-04-13T19:27:52.883Z,49.58
2023-04-13T19:30:20.023Z,49.79
2023-04-13T19:32:49.100Z,50.25
2023-04-13T19:35:17.089Z,50.02
2023-04-13T19:37:44.069Z,50.38
2023-04-13T19:40:14.115Z,50.12
2023-04-13T19:42:43.175Z,50.59
2023-04-13T19:45:11.636Z,50.55
2023-04-13T19:47:40.094Z,50.79
2023-04-13T19:50:09.295Z,50.71
2023-04-13T19:52:36.515Z,50.57
2023-04-13T19:55:03.816Z,51.35
2023-04-13T19:57:30.778Z,50.83
2023-04-13T19:59:58.082Z,50.78
2023-04-13T20:02:25.302Z,51.00
2023-04-13T20:04:52.545Z,51.15
2023-04-13T20:07:19.709Z,51.36
2023-04-13T20:09:46.793Z,51.61
2023-04-13T20:12:13.907Z,50.50
2023-04-13T20:14:42.273Z,51.04
2023-04-13T20:17:09.879Z,51.70
2023-04-13T20:19:36.970Z,52.03
2023-04-13T20:22:04.908Z,51.53
2023-04-13T20:24:32.239Z,51.27
2023-04-13T20:26:59.220Z,51.42
2023-04-13T20:29:27.660Z,51.53
2023-04-13T20:31:55.035Z,51.42
2023-04-13T20:34:22.295Z,51.66
2023-04-13T20:36:49.396Z,52.39
2023-04-13T20:39:25.536Z,52.33
2023-04-13T20:41:55.965Z,51.58
2023-04-13T20:44:27.515Z,52.69
2023-04-13T20:46:54.979Z,52.98
2023-04-13T20:49:23.536Z,52.72
2023-04-13T20:51:56.542Z,53.11
2023-04-13T20:54:23.783Z,53.39
2023-04-13T20:56:50.815Z,52.90
2023-04-13T20:59:18.568Z,53.29
2023-04-13T21:01:46.178Z,53.96
2023-04-13T21:04:13.280Z,53.54
2023-04-13T21:06:40.746Z,53.48
2023-04-13T21:09:08.870Z,53.73
2023-04-13T21:11:36.182Z,53.94
2023-04-13T21:14:04.099Z,53.99
2023-04-13T21:16:31.597Z,53.93
2023-04-13T21:18:58.536Z,54.25
2023-04-13T21:21:27.859Z,54.09
2023-04-13T21:23:54.969Z,54.54
2023-04-13T21:26:21.919Z,53.42
2023-04-13T21:28:48.982Z,53.89
2023-04-13T21:31:16.950Z,53.67
2023-04-13T21:33:44.046Z,53.86
2023-04-13T21:38:41.915Z,54.37
2023-04-13T21:41:19.495Z,54.39
2023-04-13T21:43:47.139Z,54.63
2023-04-13T21:46:16.041Z,54.17
2023-04-13T21:48:42.970Z,54.27
2023-04-13T21:51:10.084Z,54.93
2023-04-13T21:53:37.985Z,55.25
2023-04-13T21:56:05.616Z,55.55
2023-04-13T21:58:41.150Z,55.56
2023-04-13T22:01:08.813Z,55.45
2023-04-13T22:03:40.046Z,55.65
2023-04-13T22:06:08.969Z,55.91
2023-04-13T22:08:35.992Z,55.94
2023-04-13T22:11:03.193Z,56.23
2023-04-13T22:13:30.702Z,55.87
2023-04-13T22:15:58.867Z,55.69
2023-04-13T22:18:26.853Z,56.02
2023-04-13T22:20:53.851Z,55.82
2023-04-13T22:23:20.891Z,56.17
2023-04-13T22:26:01.613Z,55.83
2023-04-13T22:28:30.529Z,56.35
2023-04-13T22:30:58.108Z,55.71
2023-04-13T22:33:25.025Z,56.60
2023-04-13T22:35:55.218Z,56.77
2023-04-13T22:38:22.136Z,56.76
2023-04-13T22:40:49.152Z,56.37
2023-04-13T22:43:16.421Z,55.89
2023-04-13T22:45:43.408Z,56.85
2023-04-13T22:48:10.616Z,56.64
2023-04-13T22:50:38.172Z,56.76
2023-04-13T22:53:06.161Z,56.99
2023-04-13T22:55:33.252Z,56.84
2023-04-13T22:58:01.287Z,56.62
2023-04-13T23:00:28.511Z,56.82
2023-04-13T23:02:56.807Z,56.74
2023-04-13T23:05:24.238Z,56.37
2023-04-13T23:07:51.176Z,56.39
2023-04-13T23:10:18.294Z,56.92
2023-04-13T23:12:46.011Z,57.00
2023-04-13T23:15:14.024Z,56.90
2023-04-13T23:17:41.113Z,57.31
2023-04-13T23:20:08.444Z,57.56
2023-04-13T23:22:35.456Z,57.86
2023-04-13T23:25:02.636Z,57.51
2023-04-13T23:27:29.649Z,57.25
2023-04-13T23:29:56.708Z,57.65
2023-04-13T23:32:24.313Z,57.41
2023-04-13T23:34:51.515Z,58.17
2023-04-13T23:37:18.526Z,57.81
2023-04-13T23:39:45.435Z,57.88
2023-04-13T23:42:19.972Z,58.09
2023-04-13T23:44:46.866Z,58.36
2023-04-13T23:47:13.871Z,57.94
2023-04-13T23:49:41.783Z,58.53
2023-04-13T23:52:10.027Z,58.77
2023-04-13T23:54:36.977Z,58.88
2023-04-13T23:57:04.003Z,59.39
2023-04-13T23:59:31.281Z,59.11
